createdAt,value
2019-05-12T00:00:07.966Z,6.11
2019-05-12T00:01:09.132Z,6.00
2019-05-12T00:02:07.704Z,6.06
2019-05-12T00:03:08.473Z,5.94
2019-05-12T00:04:08.249Z,5.94
2019-05-12T00:05:08.708Z,5.95
2019-05-12T00:06:08.762Z,5.95
2019-05-12T00:07:08.734Z,5.91
2019-05-12T00:08:08.271Z,5.95
2019-05-12T00:09:08.397Z,5.95
2019-05-12T00:10:08.616Z,5.97
2019-05-12T00:11:08.793Z,5.85
2019-05-12T00:12:08.253Z,5.85
2019-05-12T00:13:08.387Z,5.88
2019-05-12T00:14:08.609Z,5.87
2019-05-12T00:15:08.171Z,5.93
2019-05-12T00:16:08.700Z,5.85
2019-05-12T00:17:08.188Z,5.90
2019-05-12T00:18:08.861Z,5.84
2019-05-12T00:19:09.089Z,5.95
2019-05-12T00:20:08.494Z,5.84
2019-05-12T00:21:08.663Z,5.91
2019-05-12T00:22:07.689Z,5.85
2019-05-12T00:23:23.412Z,5.90
2019-05-12T00:24:08.032Z,5.85
2019-05-12T00:25:08.635Z,5.84
2019-05-12T00:26:07.982Z,5.90
2019-05-12T00:27:08.435Z,5.79
2019-05-12T00:28:07.826Z,5.85
2019-05-12T00:29:07.674Z,5.75
2019-05-12T00:30:09.971Z,5.77
2019-05-12T00:31:08.408Z,5.75
2019-05-12T00:32:08.466Z,5.67
2019-05-12T00:33:08.928Z,5.66
2019-05-12T00:34:07.783Z,5.70
2019-05-12T00:35:07.813Z,5.70
2019-05-12T00:36:08.065Z,5.55
2019-05-12T00:37:08.334Z,5.55
2019-05-12T00:38:08.677Z,5.54
2019-05-12T00:39:08.569Z,5.59
2019-05-12T00:40:08.213Z,5.51
2019-05-12T00:41:08.640Z,5.36
2019-05-12T00:42:07.831Z,5.43
2019-05-12T00:43:08.444Z,5.34
2019-05-12T00:44:08.206Z,5.32
2019-05-12T00:45:08.114Z,5.37
2019-05-12T00:46:07.925Z,5.30
2019-05-12T00:47:08.137Z,5.21
2019-05-12T00:48:08.747Z,5.18
2019-05-12T00:49:08.047Z,5.24
2019-05-12T00:50:08.011Z,5.15
2019-05-12T00:51:07.749Z,5.14
2019-05-12T00:52:08.056Z,5.12
2019-05-12T00:53:08.623Z,5.16
2019-05-12T00:54:08.871Z,5.19
2019-05-12T00:55:07.908Z,5.14
2019-05-12T00:56:08.333Z,5.22
2019-05-12T00:57:07.743Z,5.15
2019-05-12T00:58:08.297Z,5.06
2019-05-12T00:59:08.280Z,5.07
2019-05-12T01:00:08.221Z,5.09
2019-05-12T01:01:08.135Z,5.09
2019-05-12T01:02:07.946Z,5.14
2019-05-12T01:03:08.421Z,5.12
2019-05-12T01:04:08.527Z,5.15
2019-05-12T01:05:08.396Z,5.16
2019-05-12T01:06:08.311Z,5.16
2019-05-12T01:07:08.521Z,5.15
2019-05-12T01:08:08.492Z,5.11
2019-05-12T01:09:08.560Z,5.09
2019-05-12T01:10:08.454Z,4.97
2019-05-12T01:11:08.646Z,4.96
2019-05-12T01:12:07.943Z,4.97
2019-05-12T01:13:08.275Z,4.98
2019-05-12T01:14:08.323Z,4.86
2019-05-12T01:15:07.507Z,4.85
2019-05-12T01:16:07.943Z,4.82
2019-05-12T01:17:08.278Z,4.77
2019-05-12T01:18:05.979Z,4.72
2019-05-12T01:19:07.990Z,4.63
2019-05-12T01:20:05.936Z,4.64
2019-05-12T01:21:07.764Z,4.69
2019-05-12T01:22:08.101Z,4.64
2019-05-12T01:23:08.241Z,4.67
2019-05-12T01:24:08.328Z,4.57
2019-05-12T01:25:08.357Z,4.59
2019-05-12T01:26:05.871Z,4.63
2019-05-12T01:27:05.856Z,4.54
2019-05-12T01:28:07.926Z,4.61
2019-05-12T01:29:08.240Z,4.57
2019-05-12T01:30:05.830Z,4.49
2019-05-12T01:31:05.816Z,4.54
2019-05-12T01:32:07.952Z,4.45
2019-05-12T01:33:08.259Z,4.43
2019-05-12T01:34:07.959Z,4.38
2019-05-12T01:35:07.950Z,4.41
2019-05-12T01:36:07.984Z,4.43
2019-05-12T01:37:07.876Z,4.46
2019-05-12T01:38:07.797Z,4.43
2019-05-12T01:39:08.187Z,4.45
2019-05-12T01:40:08.500Z,4.51
2019-05-12T01:41:05.759Z,4.41
2019-05-12T01:42:05.726Z,4.43
2019-05-12T01:43:08.248Z,4.43
2019-05-12T01:44:05.670Z,4.38
2019-05-12T01:45:05.659Z,4.42
2019-05-12T01:46:07.894Z,4.49
2019-05-12T01:47:08.244Z,4.35
2019-05-12T01:48:08.327Z,4.36
2019-05-12T01:49:07.983Z,4.41
2019-05-12T01:50:05.605Z,4.42
2019-05-12T01:51:05.597Z,4.35
2019-05-12T01:52:05.587Z,4.42
2019-05-12T01:53:07.887Z,4.31
2019-05-12T01:54:11.667Z,4.28
2019-05-12T01:55:08.175Z,4.35
2019-05-12T01:56:07.719Z,4.38
2019-05-12T01:57:07.967Z,4.30
2019-05-12T01:58:05.519Z,4.35
2019-05-12T01:59:07.932Z,4.27
2019-05-12T02:00:07.926Z,4.28
2019-05-12T02:01:05.489Z,4.24
2019-05-12T02:02:05.479Z,4.24
2019-05-12T02:03:05.468Z,4.21
2019-05-12T02:04:07.588Z,4.21
2019-05-12T02:05:08.233Z,4.23
2019-05-12T02:06:05.450Z,4.18
2019-05-12T02:07:05.422Z,4.18
2019-05-12T02:08:05.414Z,4.18
2019-05-12T02:09:05.399Z,4.23
2019-05-12T02:10:05.388Z,4.17
2019-05-12T02:11:07.854Z,4.12
2019-05-12T02:12:05.376Z,4.08
2019-05-12T02:13:07.729Z,4.06
2019-05-12T02:14:05.351Z,4.10
2019-05-12T02:15:07.995Z,4.09
2019-05-12T02:16:05.327Z,4.03
2019-05-12T02:17:05.381Z,4.09
2019-05-12T02:18:05.314Z,4.08
2019-05-12T02:19:05.291Z,4.08
2019-05-12T02:20:07.613Z,4.09
2019-05-12T02:21:05.267Z,4.09
2019-05-12T02:22:05.266Z,4.06
2019-05-12T02:23:05.314Z,4.03
2019-05-12T02:24:07.596Z,3.99
2019-05-12T02:25:07.925Z,4.03
2019-05-12T02:26:05.216Z,4.05
2019-05-12T02:27:05.206Z,4.06
2019-05-12T02:28:05.200Z,4.08
2019-05-12T02:29:07.703Z,3.98
2019-05-12T02:30:09.293Z,3.91
2019-05-12T02:31:05.162Z,3.98
2019-05-12T02:32:05.151Z,4.03
2019-05-12T02:33:05.429Z,4.06
2019-05-12T02:34:05.783Z,3.96
2019-05-12T02:35:05.871Z,4.03
2019-05-12T02:36:05.124Z,4.03
2019-05-12T02:37:05.536Z,4.08
2019-05-12T02:38:05.498Z,4.10
2019-05-12T02:39:05.441Z,4.05
2019-05-12T02:40:05.082Z,3.94
2019-05-12T02:41:05.096Z,4.02
2019-05-12T02:42:05.311Z,4.03
2019-05-12T02:43:05.776Z,4.10
2019-05-12T02:44:05.526Z,4.10
2019-05-12T02:45:05.690Z,4.06
2019-05-12T02:46:05.063Z,4.09
2019-05-12T02:47:05.320Z,4.06
2019-05-12T02:48:05.609Z,4.10
2019-05-12T02:49:05.271Z,4.08
2019-05-12T02:50:05.459Z,4.12
2019-05-12T02:51:05.699Z,4.08
2019-05-12T02:52:05.229Z,4.08
2019-05-12T02:53:05.411Z,4.13
2019-05-12T02:54:05.454Z,4.18
2019-05-12T02:55:06.227Z,4.21
2019-05-12T02:56:05.205Z,4.18
2019-05-12T02:57:04.895Z,4.12
2019-05-12T02:58:05.787Z,4.17
2019-05-12T02:59:05.677Z,4.12
2019-05-12T03:00:05.312Z,4.20
2019-05-12T03:01:05.579Z,4.23
2019-05-12T03:02:05.405Z,4.27
2019-05-12T03:03:05.533Z,4.20
2019-05-12T03:04:05.904Z,4.27
2019-05-12T03:05:05.690Z,4.23
2019-05-12T03:06:05.640Z,4.26
2019-05-12T03:07:06.473Z,4.31
2019-05-12T03:08:05.199Z,4.26
2019-05-12T03:09:05.001Z,4.39
2019-05-12T03:10:05.210Z,4.41
2019-05-12T03:11:06.002Z,4.35
2019-05-12T03:12:05.955Z,4.30
2019-05-12T03:13:04.796Z,4.43
2019-05-12T03:14:04.704Z,4.38
2019-05-12T03:15:05.634Z,4.39
2019-05-12T03:16:05.224Z,4.35
2019-05-12T03:17:04.874Z,4.54
2019-05-12T03:18:06.367Z,4.38
2019-05-12T03:19:05.273Z,4.45
2019-05-12T03:20:05.127Z,4.53
2019-05-12T03:21:05.825Z,4.56
2019-05-12T03:22:05.165Z,4.54
2019-05-12T03:23:06.330Z,4.56
2019-05-12T03:24:06.099Z,4.46
2019-05-12T03:25:15.510Z,4.53
2019-05-12T03:26:05.566Z,4.54
2019-05-12T03:27:04.569Z,4.59
2019-05-12T03:28:08.273Z,4.57
2019-05-12T03:29:05.714Z,4.56
2019-05-12T03:30:10.091Z,4.53
2019-05-12T03:31:07.925Z,4.64
2019-05-12T03:32:08.240Z,4.60
2019-05-12T03:33:09.170Z,4.61
2019-05-12T03:34:09.137Z,4.60
2019-05-12T03:35:08.736Z,4.60
2019-05-12T03:36:09.088Z,4.63
2019-05-12T03:37:07.695Z,4.60
2019-05-12T03:38:04.558Z,4.71
2019-05-12T03:39:04.452Z,4.64
2019-05-12T03:40:05.491Z,4.64
2019-05-12T03:41:05.333Z,4.64
2019-05-12T03:42:05.265Z,4.77
2019-05-12T03:43:05.376Z,4.79
2019-05-12T03:44:05.322Z,4.77
2019-05-12T03:45:04.832Z,4.78
2019-05-12T03:46:05.415Z,4.74
2019-05-12T03:47:05.206Z,4.82
2019-05-12T03:48:04.490Z,4.75
2019-05-12T03:49:05.412Z,4.86
2019-05-12T03:50:04.791Z,4.85
2019-05-12T03:51:05.748Z,4.83
2019-05-12T03:52:05.183Z,4.83
2019-05-12T03:53:09.810Z,4.88
2019-05-12T03:54:05.497Z,4.82
2019-05-12T03:55:05.548Z,4.88
2019-05-12T03:56:04.556Z,4.88
2019-05-12T03:57:04.612Z,4.96
2019-05-12T03:58:04.612Z,4.91
2019-05-12T03:59:05.026Z,4.91
2019-05-12T04:00:05.138Z,4.98
2019-05-12T04:01:04.815Z,4.97
2019-05-12T04:02:04.925Z,4.98
2019-05-12T04:03:05.001Z,5.03
2019-05-12T04:04:05.131Z,5.00
2019-05-12T04:05:05.216Z,4.89
2019-05-12T04:06:04.845Z,4.96
2019-05-12T04:07:05.159Z,5.00
2019-05-12T04:08:05.561Z,5.04
2019-05-12T04:09:04.764Z,4.98
2019-05-12T04:10:05.169Z,4.89
2019-05-12T04:11:05.324Z,4.96
2019-05-12T04:12:05.255Z,4.97
2019-05-12T04:13:04.724Z,4.94
2019-05-12T04:14:05.506Z,5.00
2019-05-12T04:15:05.129Z,5.03
2019-05-12T04:16:05.020Z,5.00
2019-05-12T04:17:04.897Z,5.03
2019-05-12T04:18:05.715Z,5.04
2019-05-12T04:19:05.282Z,5.09
2019-05-12T04:20:04.921Z,5.06
2019-05-12T04:21:05.449Z,5.04
2019-05-12T04:22:05.472Z,5.11
2019-05-12T04:23:05.811Z,5.04
2019-05-12T04:24:05.462Z,5.01
2019-05-12T04:25:06.082Z,5.04
2019-05-12T04:26:10.998Z,5.16
2019-05-12T04:27:05.439Z,5.18
2019-05-12T04:28:04.786Z,5.19
2019-05-12T04:29:05.087Z,5.25
2019-05-12T04:30:05.452Z,5.19
2019-05-12T04:31:05.477Z,5.27
2019-05-12T04:32:05.077Z,5.22
2019-05-12T04:33:04.932Z,5.29
2019-05-12T04:34:05.175Z,5.32
2019-05-12T04:35:04.805Z,5.33
2019-05-12T04:36:05.562Z,5.29
2019-05-12T04:37:04.573Z,5.27
2019-05-12T04:38:04.570Z,5.32
2019-05-12T04:39:04.367Z,5.47
2019-05-12T04:40:05.469Z,5.39
2019-05-12T04:41:05.798Z,5.39
2019-05-12T04:42:05.319Z,5.37
2019-05-12T04:43:05.907Z,5.43
2019-05-12T04:44:05.831Z,5.37
2019-05-12T04:45:04.585Z,5.47
2019-05-12T04:46:05.095Z,5.51
2019-05-12T04:47:05.548Z,5.54
2019-05-12T04:48:05.154Z,5.54
2019-05-12T04:49:05.248Z,5.58
2019-05-12T04:50:05.393Z,5.59
2019-05-12T04:51:05.033Z,5.59
2019-05-12T04:52:05.312Z,5.59
2019-05-12T04:53:06.033Z,5.54
2019-05-12T04:54:05.751Z,5.67
2019-05-12T04:55:04.692Z,5.67
2019-05-12T04:56:15.287Z,5.65
2019-05-12T04:57:04.650Z,5.66
2019-05-12T04:58:04.432Z,5.62
2019-05-12T04:59:04.927Z,5.66
2019-05-12T05:00:05.116Z,5.75
2019-05-12T05:01:06.355Z,5.82
2019-05-12T05:02:05.495Z,5.80
2019-05-12T05:03:05.075Z,5.91
2019-05-12T05:04:05.417Z,5.91
2019-05-12T05:05:05.379Z,5.98
2019-05-12T05:06:04.472Z,5.98
2019-05-12T05:07:04.503Z,6.02
2019-05-12T05:08:04.411Z,6.03
2019-05-12T05:09:05.054Z,6.09
2019-05-12T05:10:04.699Z,6.12
2019-05-12T05:11:04.137Z,6.09
2019-05-12T05:12:04.570Z,6.09
2019-05-12T05:13:05.142Z,6.13
2019-05-12T05:14:04.242Z,6.15
2019-05-12T05:15:05.376Z,6.21
2019-05-12T05:16:05.384Z,6.18
2019-05-12T05:17:05.566Z,6.32
2019-05-12T05:18:06.399Z,6.19
2019-05-12T05:19:03.731Z,6.25
2019-05-12T05:20:04.068Z,6.27
2019-05-12T05:21:04.682Z,6.28
2019-05-12T05:22:04.333Z,6.34
2019-05-12T05:23:03.753Z,6.18
2019-05-12T05:24:03.914Z,6.34
2019-05-12T05:25:04.267Z,6.31
2019-05-12T05:26:03.408Z,6.42
2019-05-12T05:27:04.429Z,6.34
2019-05-12T05:28:03.938Z,6.35
2019-05-12T05:29:04.290Z,6.38
2019-05-12T05:30:03.942Z,6.50
2019-05-12T05:31:03.649Z,6.34
2019-05-12T05:32:03.582Z,6.38
2019-05-12T05:33:04.479Z,6.47
2019-05-12T05:34:04.697Z,6.50
2019-05-12T05:35:04.648Z,6.50
2019-05-12T05:36:03.569Z,6.49
2019-05-12T05:37:05.053Z,6.64
2019-05-12T05:38:04.454Z,6.57
2019-05-12T05:39:04.318Z,6.61
2019-05-12T05:40:03.983Z,6.63
2019-05-12T05:41:05.945Z,6.65
2019-05-12T05:42:04.627Z,6.65
2019-05-12T05:43:12.246Z,6.68
2019-05-12T05:44:04.130Z,6.73
2019-05-12T05:45:04.912Z,6.79
2019-05-12T05:46:07.909Z,6.79
2019-05-12T05:47:04.434Z,6.82
2019-05-12T05:48:07.426Z,6.85
2019-05-12T05:49:04.286Z,6.85
2019-05-12T05:50:04.777Z,6.83
2019-05-12T05:51:05.647Z,6.89
2019-05-12T05:52:03.983Z,7.01
2019-05-12T05:53:03.859Z,7.01
2019-05-12T05:54:03.944Z,7.01
2019-05-12T05:55:05.767Z,7.04
2019-05-12T05:56:04.164Z,7.04
2019-05-12T05:57:06.012Z,6.99
2019-05-12T05:58:07.787Z,7.11
2019-05-12T05:59:04.773Z,7.26
2019-05-12T06:00:07.263Z,7.18
2019-05-12T06:01:07.943Z,7.22
2019-05-12T06:02:04.940Z,7.26
2019-05-12T06:03:05.251Z,7.24
2019-05-12T06:04:04.329Z,7.28
2019-05-12T06:05:04.518Z,7.26
2019-05-12T06:06:10.395Z,7.33
2019-05-12T06:07:04.180Z,7.26
2019-05-12T06:08:04.206Z,7.25
2019-05-12T06:09:03.735Z,7.28
2019-05-12T06:10:04.071Z,7.42
2019-05-12T06:11:04.816Z,7.46
2019-05-12T06:12:05.215Z,7.52
2019-05-12T06:13:04.207Z,7.46
2019-05-12T06:14:11.015Z,7.58
2019-05-12T06:15:04.205Z,7.58
2019-05-12T06:16:04.378Z,7.62
2019-05-12T06:17:04.295Z,7.60
2019-05-12T06:18:03.601Z,7.80
2019-05-12T06:19:03.490Z,7.71
2019-05-12T06:20:04.373Z,7.84
2019-05-12T06:21:03.473Z,7.76
2019-05-12T06:22:03.951Z,7.76
2019-05-12T06:23:04.283Z,7.84
2019-05-12T06:24:03.486Z,7.88
2019-05-12T06:25:04.938Z,7.91
2019-05-12T06:26:04.391Z,8.02
2019-05-12T06:27:14.303Z,7.98
2019-05-12T06:28:04.550Z,7.96
2019-05-12T06:29:04.430Z,8.01
2019-05-12T06:30:05.946Z,8.04
2019-05-12T06:31:04.239Z,8.01
2019-05-12T06:32:06.205Z,8.09
2019-05-12T06:33:04.202Z,8.02
2019-05-12T06:34:07.957Z,8.17
2019-05-12T06:35:04.527Z,8.19
2019-05-12T06:36:04.447Z,8.23
2019-05-12T06:37:11.628Z,8.26
2019-05-12T06:38:05.092Z,8.26
2019-05-12T06:39:04.362Z,8.26
2019-05-12T06:40:03.586Z,8.37
2019-05-12T06:41:03.604Z,8.39
2019-05-12T06:42:12.330Z,8.42
2019-05-12T06:43:04.305Z,8.44
2019-05-12T06:44:03.750Z,8.44
2019-05-12T06:45:03.770Z,8.50
2019-05-12T06:46:03.656Z,8.53
2019-05-12T06:47:07.079Z,8.57
2019-05-12T06:48:03.500Z,8.57
2019-05-12T06:49:11.984Z,8.59
2019-05-12T06:50:03.870Z,8.56
2019-05-12T06:51:04.042Z,8.68
2019-05-12T06:52:06.873Z,8.72
2019-05-12T06:53:04.711Z,8.71
2019-05-12T06:54:07.425Z,8.70
2019-05-12T06:55:03.989Z,8.63
2019-05-12T06:56:04.384Z,8.63
2019-05-12T06:57:18.607Z,8.67
2019-05-12T06:58:04.731Z,8.60
2019-05-12T06:59:09.923Z,8.75
2019-05-12T07:00:04.603Z,8.74
2019-05-12T07:01:10.163Z,8.92
2019-05-12T07:02:03.458Z,8.90
2019-05-12T07:03:03.924Z,8.96
2019-05-12T07:04:06.800Z,8.89
2019-05-12T07:05:04.362Z,8.86
2019-05-12T07:06:04.087Z,8.89
2019-05-12T07:07:03.615Z,8.99
2019-05-12T07:08:04.154Z,9.03
2019-05-12T07:09:09.060Z,8.95
2019-05-12T07:10:11.856Z,9.15
2019-05-12T07:11:05.948Z,9.09
2019-05-12T07:12:06.649Z,9.11
2019-05-12T07:13:05.602Z,9.16
2019-05-12T07:14:08.022Z,9.16
2019-05-12T07:15:03.819Z,9.37
2019-05-12T07:16:03.744Z,9.33
2019-05-12T07:17:05.683Z,9.18
2019-05-12T07:18:04.045Z,9.29
2019-05-12T07:19:07.609Z,9.27
2019-05-12T07:20:03.992Z,9.24
2019-05-12T07:21:04.012Z,9.30
2019-05-12T07:22:03.583Z,9.40
2019-05-12T07:23:03.979Z,9.52
2019-05-12T07:24:06.633Z,9.63
2019-05-12T07:25:04.543Z,9.66
2019-05-12T07:26:04.776Z,9.73
2019-05-12T07:27:08.761Z,9.66
2019-05-12T07:28:07.571Z,9.67
2019-05-12T07:29:04.450Z,9.65
2019-05-12T07:30:01.931Z,9.67
2019-05-12T07:31:03.797Z,9.67
2019-05-12T07:32:07.278Z,9.77
2019-05-12T07:33:04.522Z,9.85
2019-05-12T07:34:05.281Z,9.85
2019-05-12T07:35:03.909Z,9.91
2019-05-12T07:36:06.208Z,9.96
2019-05-12T07:37:04.253Z,9.85
2019-05-12T07:38:04.246Z,10.03
2019-05-12T07:39:06.226Z,10.01
2019-05-12T07:40:04.854Z,9.99
2019-05-12T07:41:08.833Z,10.06
2019-05-12T07:42:03.657Z,10.16
2019-05-12T07:43:03.757Z,10.23
2019-05-12T07:44:03.553Z,10.34
2019-05-12T07:45:03.795Z,10.28
2019-05-12T07:46:03.169Z,10.09
2019-05-12T07:47:03.636Z,10.30
2019-05-12T07:48:05.730Z,10.30
2019-05-12T07:49:03.942Z,10.17
2019-05-12T07:50:04.312Z,10.23
2019-05-12T07:51:03.998Z,10.34
2019-05-12T07:52:03.654Z,10.38
2019-05-12T07:53:04.025Z,10.46
2019-05-12T07:54:03.880Z,10.41
2019-05-12T07:55:04.123Z,10.42
2019-05-12T07:56:03.957Z,10.28
2019-05-12T07:57:05.374Z,10.23
2019-05-12T07:58:10.208Z,10.09
2019-05-12T07:59:04.380Z,10.30
2019-05-12T08:00:03.640Z,10.52
2019-05-12T08:01:02.728Z,10.67
2019-05-12T08:02:03.749Z,10.72
2019-05-12T08:03:08.030Z,10.78
2019-05-12T08:04:04.568Z,10.54
2019-05-12T08:05:03.894Z,10.38
2019-05-12T08:06:04.043Z,10.46
2019-05-12T08:07:03.748Z,10.41
2019-05-12T08:08:08.717Z,10.60
2019-05-12T08:09:04.173Z,10.72
2019-05-12T08:10:07.204Z,10.76
2019-05-12T08:11:04.405Z,10.62
2019-05-12T08:12:03.475Z,10.62
2019-05-12T08:13:01.436Z,10.78
2019-05-12T08:14:03.490Z,10.94
2019-05-12T08:15:07.739Z,10.83
2019-05-12T08:16:03.692Z,10.95
2019-05-12T08:17:10.456Z,10.95
2019-05-12T08:18:07.489Z,10.87
2019-05-12T08:19:03.967Z,10.68
2019-05-12T08:20:01.365Z,10.68
2019-05-12T08:21:03.602Z,10.61
2019-05-12T08:22:01.341Z,10.75
2019-05-12T08:23:05.734Z,10.93
2019-05-12T08:24:03.751Z,10.95
2019-05-12T08:25:01.312Z,11.03
2019-05-12T08:26:03.763Z,10.85
2019-05-12T08:27:06.210Z,10.91
2019-05-12T08:28:12.423Z,10.80
2019-05-12T08:29:04.266Z,10.73
2019-05-12T08:30:03.011Z,10.65
2019-05-12T08:31:03.461Z,10.61
2019-05-12T08:32:03.648Z,10.67
2019-05-12T08:33:03.820Z,10.94
2019-05-12T08:34:04.195Z,11.11
2019-05-12T08:35:01.236Z,11.22
2019-05-12T08:36:03.131Z,11.36
2019-05-12T08:37:04.156Z,11.18
2019-05-12T08:38:03.640Z,11.11
2019-05-12T08:39:03.836Z,11.22
2019-05-12T08:40:04.044Z,11.36
2019-05-12T08:41:04.282Z,11.23
2019-05-12T08:42:01.111Z,11.05
2019-05-12T08:43:08.203Z,11.09
2019-05-12T08:44:04.443Z,10.87
2019-05-12T08:45:03.885Z,10.78
2019-05-12T08:46:06.998Z,10.75
2019-05-12T08:47:03.954Z,10.76
2019-05-12T08:48:03.683Z,10.78
2019-05-12T08:49:03.043Z,10.70
2019-05-12T08:50:01.033Z,10.54
2019-05-12T08:51:05.239Z,10.52
2019-05-12T08:52:03.895Z,10.48
2019-05-12T08:53:01.042Z,10.45
2019-05-12T08:54:03.191Z,10.49
2019-05-12T08:55:04.096Z,10.57
2019-05-12T08:56:05.025Z,10.78
2019-05-12T08:57:03.834Z,10.97
2019-05-12T08:58:00.959Z,11.22
2019-05-12T08:59:00.961Z,11.43
2019-05-12T09:00:03.299Z,11.49
2019-05-12T09:01:04.255Z,11.85
2019-05-12T09:02:05.753Z,11.95
2019-05-12T09:03:03.576Z,12.17
2019-05-12T09:04:06.685Z,12.25
2019-05-12T09:05:04.433Z,12.15
2019-05-12T09:06:00.847Z,12.00
2019-05-12T09:07:00.922Z,12.10
2019-05-12T09:08:00.824Z,11.93
2019-05-12T09:09:00.855Z,11.93
2019-05-12T09:10:00.794Z,11.84
2019-05-12T09:11:00.829Z,11.91
2019-05-12T09:12:00.784Z,11.74
2019-05-12T09:13:00.768Z,11.71
2019-05-12T09:14:02.936Z,11.64
2019-05-12T09:15:00.754Z,11.61
2019-05-12T09:16:00.733Z,11.59
2019-05-12T09:17:03.950Z,11.56
2019-05-12T09:18:04.384Z,11.54
2019-05-12T09:19:00.716Z,11.37
2019-05-12T09:20:06.056Z,11.43
2019-05-12T09:21:03.837Z,11.52
2019-05-12T09:22:05.500Z,11.41
2019-05-12T09:23:02.774Z,11.46
2019-05-12T09:24:00.645Z,11.41
2019-05-12T09:25:06.347Z,11.46
2019-05-12T09:26:03.710Z,11.43
2019-05-12T09:27:06.903Z,11.37
2019-05-12T09:28:03.572Z,11.49
2019-05-12T09:29:00.632Z,11.43
2019-05-12T09:30:07.672Z,11.38
2019-05-12T09:31:03.572Z,11.46
2019-05-12T09:32:05.332Z,11.56
2019-05-12T09:33:03.738Z,11.61
2019-05-12T09:34:05.914Z,11.49
2019-05-12T09:35:03.786Z,11.56
2019-05-12T09:36:00.650Z,11.67
2019-05-12T09:37:01.118Z,11.82
2019-05-12T09:38:02.981Z,11.95
2019-05-12T09:39:02.959Z,11.99
2019-05-12T09:40:00.484Z,11.77
2019-05-12T09:41:01.380Z,11.87
2019-05-12T09:42:00.452Z,11.71
2019-05-12T09:43:08.632Z,11.67
2019-05-12T09:44:02.458Z,11.56
2019-05-12T09:45:08.132Z,11.67
2019-05-12T09:46:03.794Z,11.51
2019-05-12T09:47:00.476Z,11.52
2019-05-12T09:48:04.902Z,11.43
2019-05-12T09:49:01.400Z,11.37
2019-05-12T09:50:00.369Z,11.31
2019-05-12T09:51:01.998Z,11.43
2019-05-12T09:52:00.461Z,11.41
2019-05-12T09:53:00.713Z,11.36
2019-05-12T09:54:01.351Z,11.49
2019-05-12T09:55:00.312Z,11.79
2019-05-12T09:56:00.289Z,12.21
2019-05-12T09:57:00.279Z,12.44
2019-05-12T09:58:00.312Z,12.40
2019-05-12T09:59:02.702Z,12.38
2019-05-12T10:00:01.255Z,12.46
2019-05-12T10:01:00.244Z,12.53
2019-05-12T10:02:00.232Z,12.59
2019-05-12T10:03:00.842Z,12.44
2019-05-12T10:04:00.247Z,12.58
2019-05-12T10:05:00.909Z,12.65
2019-05-12T10:06:00.179Z,12.95
2019-05-12T10:07:00.166Z,12.99
2019-05-12T10:08:00.159Z,13.06
2019-05-12T10:09:00.156Z,12.87
2019-05-12T10:10:00.336Z,12.81
2019-05-12T10:11:00.128Z,12.65
2019-05-12T10:12:01.168Z,12.62
2019-05-12T10:13:00.097Z,12.51
2019-05-12T10:14:05.172Z,12.51
2019-05-12T10:15:01.120Z,12.86
2019-05-12T10:16:07.399Z,12.86
2019-05-12T10:17:03.425Z,13.04
2019-05-12T10:18:05.298Z,13.43
2019-05-12T10:19:01.031Z,13.61
2019-05-12T10:20:00.025Z,13.63
2019-05-12T10:21:00.051Z,13.55
2019-05-12T10:22:00.016Z,13.54
2019-05-12T10:22:59.989Z,13.76
2019-05-12T10:24:02.087Z,14.03
2019-05-12T10:25:00.066Z,14.16
2019-05-12T10:26:01.542Z,14.01
2019-05-12T10:27:03.559Z,13.83
2019-05-12T10:28:05.318Z,13.61
2019-05-12T10:29:14.128Z,13.64
2019-05-12T10:30:05.580Z,13.55
2019-05-12T10:31:00.920Z,13.51
2019-05-12T10:31:59.896Z,13.42
2019-05-12T10:32:59.936Z,13.19
2019-05-12T10:33:59.873Z,13.13
2019-05-12T10:34:59.861Z,13.02
2019-05-12T10:36:06.836Z,13.05
2019-05-12T10:37:00.845Z,12.91
2019-05-12T10:38:00.235Z,12.93
2019-05-12T10:39:00.851Z,12.66
2019-05-12T10:39:59.809Z,12.46
2019-05-12T10:40:59.800Z,12.47
2019-05-12T10:41:59.786Z,12.46
2019-05-12T10:42:59.776Z,12.41
2019-05-12T10:43:59.774Z,12.44
2019-05-12T10:44:59.790Z,12.50
2019-05-12T10:45:59.740Z,12.55
2019-05-12T10:46:59.731Z,12.77
2019-05-12T10:47:59.717Z,12.81
2019-05-12T10:48:59.713Z,13.27
2019-05-12T10:49:59.706Z,13.39
2019-05-12T10:50:59.729Z,13.30
2019-05-12T10:51:59.673Z,13.57
2019-05-12T10:52:59.669Z,13.54
2019-05-12T10:54:07.723Z,13.60
2019-05-12T10:55:00.641Z,13.82
2019-05-12T10:55:59.637Z,13.96
2019-05-12T10:56:59.681Z,14.11
2019-05-12T10:58:01.803Z,14.01
2019-05-12T10:59:00.603Z,13.85
2019-05-12T10:59:59.591Z,13.93
2019-05-12T11:01:05.290Z,13.93
2019-05-12T11:02:00.607Z,14.12
2019-05-12T11:03:01.463Z,14.38
2019-05-12T11:04:00.560Z,14.52
2019-05-12T11:04:59.550Z,14.66
2019-05-12T11:06:02.528Z,15.04
2019-05-12T11:07:00.510Z,15.10
2019-05-12T11:08:00.295Z,14.77
2019-05-12T11:09:00.491Z,14.45
2019-05-12T11:10:05.170Z,14.40
2019-05-12T11:11:01.376Z,14.40
2019-05-12T11:11:59.491Z,14.09
2019-05-12T11:13:59.553Z,13.63
2019-05-12T11:15:06.299Z,13.55
2019-05-12T11:16:00.412Z,13.78
2019-05-12T11:17:02.107Z,14.22
2019-05-12T11:18:00.404Z,14.73
2019-05-12T11:19:00.238Z,14.67
2019-05-12T11:20:00.483Z,14.51
2019-05-12T11:20:59.568Z,14.48
2019-05-12T11:22:03.503Z,14.21
2019-05-12T11:23:00.335Z,14.21
2019-05-12T11:23:59.333Z,14.18
2019-05-12T11:24:59.313Z,14.09
2019-05-12T11:25:59.389Z,13.91
2019-05-12T11:26:59.322Z,13.93
2019-05-12T11:27:59.279Z,13.90
2019-05-12T11:28:59.267Z,13.94
2019-05-12T11:29:59.260Z,14.30
2019-05-12T11:30:59.245Z,14.33
2019-05-12T11:31:59.299Z,14.37
2019-05-12T11:32:59.764Z,14.44
2019-05-12T11:33:59.212Z,14.41
2019-05-12T11:34:59.397Z,14.30
2019-05-12T11:35:59.262Z,14.22
2019-05-12T11:36:59.192Z,14.28
2019-05-12T11:37:59.233Z,14.48
2019-05-12T11:38:59.155Z,14.33
2019-05-12T11:39:59.215Z,13.88
2019-05-12T11:40:59.136Z,13.67
2019-05-12T11:41:59.131Z,13.68
2019-05-12T11:43:01.126Z,13.64
2019-05-12T11:43:59.130Z,13.64
2019-05-12T11:44:59.094Z,14.13
2019-05-12T11:45:59.085Z,14.46
2019-05-12T11:46:59.070Z,14.78
2019-05-12T11:48:05.179Z,14.79
2019-05-12T11:49:00.419Z,14.79
2019-05-12T11:50:05.203Z,14.83
2019-05-12T11:51:00.025Z,14.93
2019-05-12T11:52:01.049Z,15.19
2019-05-12T11:53:00.015Z,15.29
2019-05-12T11:54:03.598Z,14.99
2019-05-12T11:55:00.032Z,14.71
2019-05-12T11:56:02.365Z,14.45
2019-05-12T11:56:59.978Z,14.37
2019-05-12T11:58:00.250Z,14.56
2019-05-12T11:58:59.946Z,15.10
2019-05-12T12:00:02.017Z,15.26
2019-05-12T12:01:06.401Z,15.70
2019-05-12T12:01:59.996Z,16.03
2019-05-12T12:03:03.767Z,16.21
2019-05-12T12:03:59.884Z,15.81
2019-05-12T12:04:58.874Z,15.51
2019-05-12T12:05:58.864Z,15.20
2019-05-12T12:06:59.053Z,15.10
2019-05-12T12:07:58.852Z,14.99
2019-05-12T12:08:58.831Z,15.66
2019-05-12T12:09:59.586Z,15.95
2019-05-12T12:10:58.813Z,16.44
2019-05-12T12:12:05.564Z,16.57
2019-05-12T12:12:59.983Z,16.36
2019-05-12T12:14:00.312Z,16.13
2019-05-12T12:14:59.770Z,15.69
2019-05-12T12:16:00.670Z,15.20
2019-05-12T12:16:59.740Z,14.95
2019-05-12T12:18:03.969Z,14.67
2019-05-12T12:19:02.516Z,14.96
2019-05-12T12:19:58.773Z,15.12
2019-05-12T12:21:04.299Z,15.32
2019-05-12T12:21:59.692Z,15.87
2019-05-12T12:23:00.258Z,16.59
2019-05-12T12:23:59.674Z,16.72
2019-05-12T12:25:05.062Z,16.72
2019-05-12T12:25:59.641Z,16.06
2019-05-12T12:26:58.635Z,15.76
2019-05-12T12:27:58.645Z,15.66
2019-05-12T12:28:58.642Z,15.44
2019-05-12T12:30:12.138Z,15.47
2019-05-12T12:31:01.918Z,15.40
2019-05-12T12:31:59.592Z,15.33
2019-05-12T12:33:00.259Z,15.11
2019-05-12T12:33:58.559Z,15.19
2019-05-12T12:35:00.892Z,15.12
2019-05-12T12:36:00.885Z,15.29
2019-05-12T12:36:58.575Z,15.47
2019-05-12T12:37:58.518Z,15.45
2019-05-12T12:38:58.525Z,15.87
2019-05-12T12:39:58.531Z,16.58
2019-05-12T12:40:58.488Z,16.94
2019-05-12T12:42:00.442Z,17.14
2019-05-12T12:42:59.070Z,17.30
2019-05-12T12:43:59.454Z,17.37
2019-05-12T12:44:59.273Z,17.37
2019-05-12T12:45:58.505Z,17.69
2019-05-12T12:47:00.397Z,17.46
2019-05-12T12:47:58.415Z,17.43
2019-05-12T12:49:00.080Z,18.03
2019-05-12T12:49:59.427Z,17.37
2019-05-12T12:50:58.400Z,16.70
2019-05-12T12:51:58.364Z,16.22
2019-05-12T12:52:58.362Z,16.13
2019-05-12T12:53:58.381Z,16.49
2019-05-12T12:55:03.956Z,17.10
2019-05-12T12:55:59.437Z,16.73
2019-05-12T12:57:00.285Z,17.20
2019-05-12T12:57:59.378Z,17.72
2019-05-12T12:59:04.150Z,18.03
2019-05-12T12:59:59.378Z,18.31
2019-05-12T13:00:58.270Z,18.68
2019-05-12T13:01:59.052Z,18.75
2019-05-12T13:02:59.277Z,18.64
2019-05-12T13:03:59.248Z,18.39
2019-05-12T13:04:59.227Z,17.56
2019-05-12T13:05:58.558Z,17.41
2019-05-12T13:06:58.270Z,17.73
2019-05-12T13:07:58.284Z,17.75